createdAt,value
2018-11-22T12:16:32.040Z,17.32
2018-11-22T12:18:59.298Z,20.05
2018-11-22T12:21:26.568Z,20.62
2018-11-22T12:23:53.850Z,19.92
2018-11-22T12:26:21.102Z,21.97
2018-11-22T12:28:48.435Z,18.27
2018-11-22T12:31:15.745Z,18.77
2018-11-22T12:33:47.590Z,16.65
2018-11-22T12:36:20.486Z,17.12
2018-11-22T12:38:47.738Z,17.40
2018-11-22T12:41:15.042Z,16.67
2018-11-22T12:43:42.564Z,15.30
2018-11-22T12:46:09.845Z,15.72
2018-11-22T12:48:37.097Z,17.98
2018-11-22T12:51:04.442Z,17.82
2018-11-22T12:53:31.681Z,17.23
2018-11-22T12:55:58.969Z,16.17
2018-11-22T12:58:26.864Z,16.52
2018-11-22T13:00:54.181Z,16.67
2018-11-22T13:03:21.418Z,16.35
2018-11-22T13:05:48.698Z,15.65
2018-11-22T13:08:15.966Z,19.30
2018-11-22T13:10:43.338Z,17.48
2018-11-22T13:13:10.730Z,18.00
2018-11-22T13:15:37.994Z,19.50
2018-11-22T13:18:05.294Z,18.77
2018-11-22T13:20:32.590Z,21.10
2018-11-22T13:22:59.848Z,19.98
2018-11-22T13:25:27.109Z,19.77
2018-11-22T13:27:54.365Z,21.15
2018-11-22T13:30:24.154Z,16.40
2018-11-22T13:32:52.905Z,15.25
2018-11-22T13:35:20.365Z,16.05
2018-11-22T13:37:48.862Z,16.60
2018-11-22T13:40:16.198Z,13.65
2018-11-22T13:42:44.138Z,16.87
2018-11-22T13:45:13.475Z,16.40
2018-11-22T13:47:41.857Z,14.18
2018-11-22T13:50:11.070Z,14.10
2018-11-22T13:52:38.338Z,13.35
2018-11-22T13:55:05.626Z,14.75
2018-11-22T13:57:32.985Z,13.80
2018-11-22T14:00:00.392Z,14.23
2018-11-22T14:02:28.537Z,14.30
2018-11-22T14:04:55.909Z,14.58
2018-11-22T14:07:23.195Z,16.20
2018-11-22T14:09:50.522Z,13.58
2018-11-22T14:12:17.802Z,16.20
2018-11-22T14:14:45.123Z,14.93
2018-11-22T14:17:12.385Z,14.93
2018-11-22T14:19:39.705Z,13.22
2018-11-22T14:22:06.954Z,14.10
2018-11-22T14:24:34.221Z,12.93
2018-11-22T14:27:01.552Z,14.03
2018-11-22T14:29:28.797Z,13.95
2018-11-22T14:31:56.094Z,14.55
2018-11-22T14:34:23.382Z,14.38
2018-11-22T14:36:50.685Z,15.05
2018-11-22T14:39:18.019Z,14.07
2018-11-22T14:41:48.394Z,14.20
2018-11-22T14:44:15.984Z,14.50
2018-11-22T14:46:43.229Z,14.47
2018-11-22T14:49:10.477Z,13.55
2018-11-22T14:51:41.587Z,13.83
2018-11-22T14:54:08.914Z,13.68
2018-11-22T14:56:36.284Z,14.07
2018-11-22T14:59:03.553Z,15.00
2018-11-22T15:01:30.897Z,14.05
2018-11-22T15:03:58.161Z,21.15
2018-11-22T15:06:25.394Z,27.85
2018-11-22T15:08:52.658Z,31.15
2018-11-22T15:11:20.057Z,36.60
2018-11-22T15:13:47.317Z,38.63
2018-11-22T15:16:15.429Z,42.08
2018-11-22T15:18:42.891Z,35.40
2018-11-22T15:21:10.570Z,24.25
2018-11-22T15:23:37.868Z,22.37
2018-11-22T15:26:05.278Z,24.45
2018-11-22T15:28:32.617Z,18.52
2018-11-22T15:30:59.979Z,19.90
2018-11-22T15:33:27.273Z,22.73
2018-11-22T15:35:55.098Z,37.60
2018-11-22T15:38:22.373Z,38.30
2018-11-22T15:40:49.653Z,33.30
2018-11-22T15:43:16.898Z,24.55
2018-11-22T15:45:44.187Z,29.42
2018-11-22T15:48:11.451Z,30.97
2018-11-22T15:50:38.777Z,28.35
2018-11-22T15:53:06.033Z,32.05
2018-11-22T15:55:33.290Z,27.00
2018-11-22T15:58:00.761Z,36.58
2018-11-22T16:00:30.383Z,43.52
2018-11-22T16:02:58.146Z,40.88
2018-11-22T16:05:26.118Z,32.67
2018-11-22T16:07:53.398Z,29.72
2018-11-22T16:10:26.808Z,24.05
2018-11-22T16:12:54.829Z,23.07
2018-11-22T16:15:25.994Z,31.30
2018-11-22T16:17:53.293Z,29.52
2018-11-22T16:20:20.557Z,28.17
2018-11-22T16:22:47.813Z,29.48
2018-11-22T16:25:15.073Z,50.98
2018-11-22T16:27:42.329Z,32.73
2018-11-22T16:30:13.070Z,38.90
2018-11-22T16:32:40.445Z,34.63
2018-11-22T16:35:09.354Z,41.10
2018-11-22T16:37:36.804Z,50.00
2018-11-22T16:40:05.052Z,46.75
2018-11-22T16:42:32.377Z,38.08
2018-11-22T16:44:59.622Z,32.08
2018-11-22T16:47:26.893Z,32.58
2018-11-22T16:49:54.178Z,40.52
2018-11-22T16:52:21.453Z,43.15
2018-11-22T16:54:48.708Z,38.17
2018-11-22T16:57:15.957Z,27.73
2018-11-22T16:59:43.218Z,29.98
2018-11-22T17:02:10.538Z,33.70
2018-11-22T17:04:37.782Z,31.95
2018-11-22T17:07:05.173Z,53.63
2018-11-22T17:09:32.461Z,60.48
2018-11-22T17:11:59.722Z,43.63
2018-11-22T17:14:27.035Z,36.30
2018-11-22T17:16:54.333Z,36.88
2018-11-22T17:19:21.613Z,44.42
2018-11-22T17:21:48.861Z,42.13
2018-11-22T17:24:16.201Z,33.30
2018-11-22T17:26:43.533Z,26.97
2018-11-22T17:29:10.847Z,25.27
2018-11-22T17:31:38.118Z,23.77
2018-11-22T17:34:05.634Z,23.75
2018-11-22T17:36:32.875Z,25.70
2018-11-22T17:39:00.121Z,25.62
2018-11-22T17:41:27.389Z,25.25
2018-11-22T17:43:54.639Z,29.63
2018-11-22T17:46:21.895Z,26.80
2018-11-22T17:48:49.138Z,26.27
2018-11-22T17:51:16.397Z,30.10
2018-11-22T17:53:43.649Z,30.23
2018-11-22T17:56:10.969Z,35.15
2018-11-22T17:58:38.317Z,36.25
2018-11-22T18:01:05.718Z,30.50
2018-11-22T18:03:33.253Z,30.23
2018-11-22T18:06:00.542Z,27.60
2018-11-22T18:08:27.897Z,33.75
2018-11-22T18:10:55.300Z,37.33
2018-11-22T18:13:22.766Z,37.73
2018-11-22T18:15:55.889Z,29.18
2018-11-22T18:18:23.448Z,31.48
2018-11-22T18:20:50.714Z,32.70
2018-11-22T18:23:18.014Z,30.68
2018-11-22T18:25:48.866Z,26.40
2018-11-22T18:28:12.552Z,30.82
2018-11-22T18:30:39.810Z,37.50
2018-11-22T18:33:07.881Z,37.28
2018-11-22T18:35:35.229Z,39.20
2018-11-22T18:38:02.694Z,29.45
2018-11-22T18:40:31.291Z,25.55
2018-11-22T18:42:59.672Z,22.45
2018-11-22T18:45:31.110Z,22.13
2018-11-22T18:47:59.122Z,28.25
2018-11-22T18:50:27.442Z,28.70
2018-11-22T18:52:54.703Z,25.97
2018-11-22T18:55:22.157Z,23.67
2018-11-22T18:57:49.526Z,23.35
2018-11-22T19:00:19.518Z,24.10
2018-11-22T19:02:46.785Z,22.98
2018-11-22T19:05:14.750Z,22.50
2018-11-22T19:07:43.423Z,24.50
2018-11-22T19:10:12.990Z,24.30
2018-11-22T19:12:40.517Z,24.37
2018-11-22T19:15:09.482Z,26.25
2018-11-22T19:17:37.985Z,25.80
2018-11-22T19:20:09.178Z,26.75
2018-11-22T19:22:35.429Z,27.58
2018-11-22T19:25:02.849Z,25.43
2018-11-22T19:27:30.065Z,23.30
2018-11-22T19:29:57.335Z,27.20
2018-11-22T19:32:24.629Z,27.45
2018-11-22T19:34:52.005Z,25.35
2018-11-22T19:37:19.265Z,24.92
2018-11-22T19:39:46.526Z,18.40
2018-11-22T19:42:13.801Z,21.35
2018-11-22T19:44:41.037Z,20.62
2018-11-22T19:47:08.297Z,21.20
2018-11-22T19:49:35.549Z,20.32
2018-11-22T19:52:02.853Z,24.20
2018-11-22T19:54:30.182Z,24.55
2018-11-22T19:56:57.429Z,25.65
2018-11-22T19:59:24.781Z,24.32
2018-11-22T20:01:52.069Z,25.77
2018-11-22T20:04:19.442Z,26.25
2018-11-22T20:06:46.826Z,27.17
2018-11-22T20:09:14.061Z,26.33
2018-11-22T20:11:41.346Z,28.45
2018-11-22T20:14:08.642Z,28.47
2018-11-22T20:16:36.029Z,27.93
2018-11-22T20:19:03.478Z,27.25
2018-11-22T20:21:30.725Z,28.47
2018-11-22T20:23:57.991Z,27.80
2018-11-22T20:26:25.254Z,22.93
2018-11-22T20:28:52.549Z,24.37
2018-11-22T20:31:19.802Z,25.48
2018-11-22T20:33:47.281Z,25.25
2018-11-22T20:36:14.571Z,27.65
2018-11-22T20:38:41.825Z,28.87
2018-11-22T20:41:09.092Z,35.92
2018-11-22T20:43:36.498Z,52.90
2018-11-22T20:46:03.931Z,47.13
2018-11-22T20:48:31.237Z,39.27
2018-11-22T20:50:58.484Z,40.35
2018-11-22T20:53:25.793Z,33.98
2018-11-22T20:55:53.089Z,26.85
2018-11-22T20:58:20.379Z,24.43
2018-11-22T21:00:47.673Z,28.07
2018-11-22T21:03:15.025Z,23.15
2018-11-22T21:05:42.289Z,24.82
2018-11-22T21:08:09.583Z,25.82
2018-11-22T21:10:36.861Z,25.27
2018-11-22T21:13:04.338Z,25.68
2018-11-22T21:15:32.613Z,24.80
2018-11-22T21:18:02.221Z,23.20
2018-11-22T21:20:33.754Z,21.15
2018-11-22T21:23:01.145Z,21.15
2018-11-22T21:25:28.548Z,22.95
2018-11-22T21:27:55.878Z,22.15
2018-11-22T21:30:29.057Z,26.65
2018-11-22T21:32:57.021Z,23.87
2018-11-22T21:35:24.457Z,24.35
2018-11-22T21:37:53.982Z,24.02
2018-11-22T21:40:21.861Z,27.98
2018-11-22T21:42:49.149Z,28.20
2018-11-22T21:45:17.781Z,31.05
2018-11-22T21:47:45.025Z,31.70
2018-11-22T21:50:13.585Z,29.95
2018-11-22T21:52:40.881Z,23.42
2018-11-22T21:55:11.600Z,22.65
2018-11-22T21:57:39.825Z,21.80
2018-11-22T22:00:15.062Z,27.77
2018-11-22T22:02:42.494Z,28.75
2018-11-22T22:05:10.022Z,31.95
2018-11-22T22:07:37.485Z,30.82
2018-11-22T22:10:04.954Z,31.48
2018-11-22T22:12:32.458Z,28.27
2018-11-22T22:15:00.658Z,27.77
2018-11-22T22:17:28.001Z,24.98
2018-11-22T22:19:55.531Z,20.62
2018-11-22T22:22:22.800Z,22.00
2018-11-22T22:24:50.075Z,22.52
2018-11-22T22:27:17.422Z,23.05
2018-11-22T22:29:44.669Z,22.67
2018-11-22T22:32:11.946Z,25.85
2018-11-22T22:34:39.178Z,24.50
2018-11-22T22:37:06.458Z,24.00
2018-11-22T22:39:33.705Z,24.80
2018-11-22T22:42:01.010Z,26.10
2018-11-22T22:44:28.253Z,23.40
2018-11-22T22:46:55.505Z,24.18
2018-11-22T22:49:22.778Z,21.75
2018-11-22T22:51:50.286Z,22.65
2018-11-22T22:54:17.591Z,22.32
2018-11-22T22:56:44.843Z,25.40
2018-11-22T22:59:12.130Z,22.67
2018-11-22T23:01:39.407Z,22.45
2018-11-22T23:04:06.784Z,23.83
2018-11-22T23:06:34.146Z,24.07
2018-11-22T23:09:01.451Z,23.65
2018-11-22T23:11:29.530Z,23.98
2018-11-22T23:13:57.293Z,22.02
2018-11-22T23:16:24.656Z,23.57
2018-11-22T23:18:51.950Z,22.58
2018-11-22T23:21:19.269Z,22.77
2018-11-22T23:23:46.602Z,24.85
2018-11-22T23:26:13.914Z,21.73
2018-11-22T23:28:41.230Z,23.73
2018-11-22T23:31:08.600Z,24.32
2018-11-22T23:33:35.887Z,26.90
2018-11-22T23:36:03.205Z,23.75
2018-11-22T23:38:30.443Z,25.85
2018-11-22T23:40:57.755Z,25.57
2018-11-22T23:43:25.018Z,23.67
2018-11-22T23:45:52.322Z,23.07
2018-11-22T23:48:19.591Z,23.55
2018-11-22T23:50:46.830Z,24.60
2018-11-22T23:53:14.159Z,24.72
2018-11-22T23:55:41.412Z,24.57
2018-11-22T23:58:08.669Z,27.13
